Time;durP1;ratioP1;P1;durP2;ratioP2;P2;SDS_P1;SDS_P2;PMS_P1;PMS_P2;Temp;Humidity;BMP_temperature;BMP_pressure;BME280_temperature;BME280_humidity;BME280_pressure;Samples;Min_cycle;Max_cycle;Signal;HPM_P1;HPM_P2
2021/12/27 00:01:44;;;;;;;17.67;8.32;;;;;;;;;;5030717;28;20037;-71
2021/12/27 00:04:10;;;;;;;18.65;7.47;;;;;;;;;;5029296;28;20033;-72
2021/12/27 00:06:36;;;;;;;16.00;7.43;;;;;;;;;;5030470;28;20025;-71
2021/12/27 00:09:03;;;;;;;16.35;7.15;;;;;;;;;;5031853;28;20052;-72
2021/12/27 00:11:29;;;;;;;19.70;7.97;;;;;;;;;;5031120;28;20582;-71
2021/12/27 00:13:55;;;;;;;13.20;7.53;;;;;;;;;;5031354;28;20092;-71
2021/12/27 00:16:21;;;;;;;16.38;7.93;;;;;;;;;;5032277;28;20129;-71
2021/12/27 00:18:47;;;;;;;18.10;8.05;;;;;;;;;;5032090;28;20029;-71
2021/12/27 00:21:13;;;;;;;15.85;7.72;;;;;;;;;;5031882;28;20582;-72
2021/12/27 00:23:39;;;;;;;16.67;7.80;;;;;;;;;;5030138;28;20043;-72
2021/12/27 00:26:05;;;;;;;17.10;8.23;;;;;;;;;;5031663;28;20446;-71
2021/12/27 00:28:33;;;;;;;17.08;7.95;;;;;;;;;;5031764;28;20061;-70
2021/12/27 00:30:59;;;;;;;18.30;8.25;;;;;;;;;;5031525;28;20044;-71
2021/12/27 00:33:25;;;;;;;13.93;8.18;;;;;;;;;;5030877;28;20029;-71
2021/12/27 00:35:51;;;;;;;16.60;7.93;;;;;;;;;;5031688;28;20036;-72
2021/12/27 00:38:17;;;;;;;14.40;8.73;;;;;;;;;;5031738;28;20041;-72
2021/12/27 00:40:43;;;;;;;18.52;8.25;;;;;;;;;;5031742;28;20029;-72
2021/12/27 00:43:09;;;;;;;15.32;7.47;;;;;;;;;;5030770;28;20033;-72
2021/12/27 00:45:35;;;;;;;20.77;8.90;;;;;;;;;;5031166;28;20518;-72
2021/12/27 00:48:01;;;;;;;16.27;7.88;;;;;;;;;;5030113;28;20029;-72
2021/12/27 00:50:27;;;;;;;14.88;7.65;;;;;;;;;;5031743;28;20029;-71
2021/12/27 00:52:53;;;;;;;14.05;7.25;;;;;;;;;;5031038;28;20057;-72
2021/12/27 00:55:20;;;;;;;16.40;7.75;;;;;;;;;;5029050;28;20118;-70
2021/12/27 00:57:46;;;;;;;14.68;7.07;;;;;;;;;;5030007;28;20037;-72
2021/12/27 01:00:14;;;;;;;16.70;7.55;;;;;;;;;;5030957;28;20041;-70
2021/12/27 01:02:40;;;;;;;15.10;6.90;;;;;;;;;;5029803;28;20029;-70
2021/12/27 01:05:07;;;;;;;14.07;8.30;;;;;;;;;;5030712;28;20036;-70
2021/12/27 01:07:33;;;;;;;17.35;8.40;;;;;;;;;;5015619;28;20101;-70
2021/12/27 01:13:01;;;;;;;;;;;;;;;;;;5024577;28;20033;-70
2021/12/27 01:18:06;;;;;;;15.70;7.07;;;;;;;;;;5030935;28;20037;-70
2021/12/27 01:20:35;;;;;;;17.80;8.82;;;;;;;;;;5031335;28;20104;-71
2021/12/27 01:23:01;;;;;;;15.70;7.95;;;;;;;;;;5030963;28;20036;-69
2021/12/27 01:25:26;;;;;;;21.92;9.25;;;;;;;;;;5030978;28;20394;-71
2021/12/27 01:27:53;;;;;;;18.85;9.18;;;;;;;;;;5031262;28;20026;-70
2021/12/27 01:30:19;;;;;;;13.15;7.07;;;;;;;;;;5030878;28;20049;-71
2021/12/27 01:32:50;;;;;;;18.00;8.35;;;;;;;;;;5030918;28;20040;-69
2021/12/27 01:35:16;;;;;;;18.02;7.88;;;;;;;;;;5031109;28;20036;-70
2021/12/27 01:37:43;;;;;;;13.18;7.22;;;;;;;;;;5031128;28;20507;-70
2021/12/27 01:40:10;;;;;;;15.10;7.85;;;;;;;;;;5030917;28;20025;-70
2021/12/27 01:42:37;;;;;;;18.95;9.05;;;;;;;;;;5031101;28;20036;-70
2021/12/27 01:45:04;;;;;;;17.55;8.05;;;;;;;;;;5030106;28;20403;-71
2021/12/27 01:47:31;;;;;;;20.77;9.30;;;;;;;;;;5018470;28;20072;-70
2021/12/27 01:49:58;;;;;;;16.42;8.05;;;;;;;;;;5030548;28;20025;-70
2021/12/27 01:52:25;;;;;;;18.80;8.75;;;;;;;;;;5034802;28;20021;-70
2021/12/27 01:54:51;;;;;;;17.38;8.88;;;;;;;;;;5032818;28;20060;-70
2021/12/27 01:57:17;;;;;;;21.23;9.68;;;;;;;;;;5033364;28;20435;-70
2021/12/27 01:59:43;;;;;;;16.80;8.43;;;;;;;;;;5034739;28;20056;-71
2021/12/27 02:02:09;;;;;;;19.70;8.35;;;;;;;;;;5034470;28;20026;-70
2021/12/27 02:04:35;;;;;;;18.30;8.90;;;;;;;;;;5033775;28;20519;-70
2021/12/27 02:07:01;;;;;;;17.45;7.80;;;;;;;;;;5018127;28;20409;-70
2021/12/27 02:09:38;;;;;;;18.42;8.82;;;;;;;;;;5034057;28;20076;-70
2021/12/27 02:12:04;;;;;;;20.83;10.13;;;;;;;;;;5034350;28;20083;-71
2021/12/27 02:14:30;;;;;;;19.58;8.90;;;;;;;;;;5032746;28;20395;-72
2021/12/27 02:16:56;;;;;;;20.77;8.68;;;;;;;;;;5034226;28;20036;-71
2021/12/27 02:19:23;;;;;;;18.50;9.00;;;;;;;;;;5032965;28;20036;-71
2021/12/27 02:21:49;;;;;;;18.70;8.98;;;;;;;;;;5034407;28;20115;-70
2021/12/27 02:24:15;;;;;;;17.85;9.30;;;;;;;;;;5033315;28;20034;-70
2021/12/27 02:26:41;;;;;;;16.00;9.63;;;;;;;;;;5034012;28;20026;-71
2021/12/27 02:29:09;;;;;;;21.67;9.55;;;;;;;;;;5034327;28;20029;-71
2021/12/27 02:31:39;;;;;;;19.15;10.65;;;;;;;;;;5034293;28;20489;-71
2021/12/27 02:34:07;;;;;;;17.98;9.30;;;;;;;;;;5033563;28;20026;-71
2021/12/27 02:36:33;;;;;;;17.65;9.73;;;;;;;;;;5033926;28;20493;-71
2021/12/27 02:38:59;;;;;;;16.65;8.68;;;;;;;;;;5033994;28;20407;-71
2021/12/27 02:41:25;;;;;;;20.38;10.27;;;;;;;;;;5033652;28;20033;-71
2021/12/27 02:43:51;;;;;;;15.73;8.35;;;;;;;;;;5033258;28;20390;-71
2021/12/27 02:46:17;;;;;;;18.83;9.52;;;;;;;;;;5033448;28;20033;-71
2021/12/27 02:48:46;;;;;;;19.70;9.77;;;;;;;;;;5033873;28;20092;-71
2021/12/27 02:51:12;;;;;;;20.60;9.23;;;;;;;;;;5033673;28;20045;-71
2021/12/27 02:53:38;;;;;;;19.02;9.25;;;;;;;;;;5032977;28;20029;-71
2021/12/27 02:56:06;;;;;;;16.30;8.88;;;;;;;;;;5033476;28;20387;-71
2021/12/27 02:58:33;;;;;;;20.05;9.20;;;;;;;;;;5033645;28;20022;-71
2021/12/27 03:01:09;;;;;;;20.85;9.05;;;;;;;;;;5033700;28;20079;-71
2021/12/27 03:03:35;;;;;;;20.00;8.63;;;;;;;;;;5017304;28;20030;-71
2021/12/27 03:06:01;;;;;;;18.63;8.98;;;;;;;;;;5033110;28;20030;-71
2021/12/27 03:08:28;;;;;;;17.70;8.95;;;;;;;;;;5031816;28;20026;-71
2021/12/27 03:10:56;;;;;;;18.27;8.90;;;;;;;;;;5033406;28;20033;-72
2021/12/27 03:13:26;;;;;;;16.77;8.85;;;;;;;;;;5032691;28;20025;-71
2021/12/27 03:16:03;;;;;;;18.73;9.98;;;;;;;;;;5031989;28;20034;-71
2021/12/27 03:18:29;;;;;;;18.00;8.75;;;;;;;;;;5032129;28;20030;-71
2021/12/27 03:20:56;;;;;;;16.60;9.13;;;;;;;;;;5032965;28;20513;-71
2021/12/27 03:23:22;;;;;;;16.33;8.85;;;;;;;;;;5031035;28;20030;-70
2021/12/27 03:25:48;;;;;;;17.20;8.80;;;;;;;;;;5031681;28;20032;-71
2021/12/27 03:28:15;;;;;;;19.17;7.93;;;;;;;;;;5032879;28;20119;-71
2021/12/27 03:30:41;;;;;;;16.63;8.57;;;;;;;;;;5032890;28;20083;-71
2021/12/27 03:33:08;;;;;;;21.73;9.15;;;;;;;;;;5032239;28;20026;-71
2021/12/27 03:35:36;;;;;;;19.13;9.80;;;;;;;;;;5032624;28;20514;-71
2021/12/27 03:38:03;;;;;;;16.58;9.23;;;;;;;;;;5032832;28;20033;-71
2021/12/27 03:40:30;;;;;;;16.88;9.15;;;;;;;;;;5032773;28;20041;-71
2021/12/27 03:42:56;;;;;;;18.98;8.73;;;;;;;;;;5032291;28;20025;-71
2021/12/27 03:45:40;;;;;;;17.27;8.73;;;;;;;;;;5032343;28;20034;-71
2021/12/27 03:48:08;;;;;;;17.83;8.63;;;;;;;;;;5031072;28;20075;-71
2021/12/27 03:50:34;;;;;;;18.25;8.50;;;;;;;;;;5032815;28;20057;-71
2021/12/27 03:53:00;;;;;;;15.40;8.63;;;;;;;;;;5031806;28;20021;-71
2021/12/27 03:55:27;;;;;;;17.90;9.60;;;;;;;;;;5032211;28;20647;-71
2021/12/27 03:57:55;;;;;;;18.63;8.70;;;;;;;;;;5026580;28;20112;-70
2021/12/27 04:02:52;;;;;;;13.07;7.23;;;;;;;;;;5032115;28;20095;-71
2021/12/27 04:05:19;;;;;;;16.98;9.70;;;;;;;;;;5030035;28;20284;-71
2021/12/27 04:07:47;;;;;;;19.13;8.27;;;;;;;;;;5018330;28;20064;-71
2021/12/27 04:10:13;;;;;;;18.23;8.55;;;;;;;;;;5031665;28;20475;-71
2021/12/27 04:12:39;;;;;;;18.23;8.30;;;;;;;;;;5031940;28;20056;-69
2021/12/27 04:15:07;;;;;;;18.23;8.93;;;;;;;;;;5031398;28;20079;-71
2021/12/27 04:17:33;;;;;;;17.15;7.85;;;;;;;;;;5031090;28;20034;-71
2021/12/27 04:19:59;;;;;;;18.92;8.70;;;;;;;;;;5030969;28;20026;-71
2021/12/27 04:22:26;;;;;;;17.48;8.90;;;;;;;;;;5030598;28;20130;-71
2021/12/27 04:24:52;;;;;;;16.42;8.88;;;;;;;;;;5031197;28;20108;-71
2021/12/27 04:27:20;;;;;;;22.45;10.48;;;;;;;;;;5031756;28;20112;-71
2021/12/27 04:29:46;;;;;;;16.60;8.85;;;;;;;;;;5031603;28;20037;-71
2021/12/27 04:32:12;;;;;;;17.52;8.98;;;;;;;;;;5031803;28;20031;-71
2021/12/27 04:34:38;;;;;;;20.17;8.45;;;;;;;;;;5031506;28;20071;-71
2021/12/27 04:37:04;;;;;;;20.60;9.77;;;;;;;;;;5032270;28;20025;-72
2021/12/27 04:39:30;;;;;;;18.35;9.25;;;;;;;;;;5032024;28;20053;-71
2021/12/27 04:41:56;;;;;;;16.25;8.77;;;;;;;;;;5032095;28;20112;-72
2021/12/27 04:44:22;;;;;;;14.80;8.65;;;;;;;;;;5030006;28;20029;-72
2021/12/27 04:46:48;;;;;;;17.40;8.20;;;;;;;;;;5031532;28;20030;-72
2021/12/27 04:49:14;;;;;;;22.20;10.00;;;;;;;;;;5031755;28;20029;-71
2021/12/27 04:51:40;;;;;;;20.25;9.63;;;;;;;;;;5031780;28;20028;-71
2021/12/27 04:54:07;;;;;;;18.73;9.80;;;;;;;;;;5030031;28;20052;-71
2021/12/27 04:56:33;;;;;;;21.67;11.07;;;;;;;;;;5053341;23;20276;-72
2021/12/27 04:58:59;;;;;;;22.27;9.73;;;;;;;;;;5031436;28;20021;-72
2021/12/27 05:01:25;;;;;;;19.95;9.70;;;;;;;;;;5031460;28;20013;-71
2021/12/27 05:03:51;;;;;;;17.48;10.23;;;;;;;;;;5030685;28;20025;-72
2021/12/27 05:06:17;;;;;;;21.80;10.93;;;;;;;;;;5031354;28;20760;-72
2021/12/27 05:08:43;;;;;;;21.05;9.85;;;;;;;;;;5030085;28;20137;-71
2021/12/27 05:11:09;;;;;;;20.58;10.75;;;;;;;;;;5031150;28;20022;-73
2021/12/27 05:13:36;;;;;;;20.38;10.40;;;;;;;;;;5030483;28;20471;-72
2021/12/27 05:16:03;;;;;;;23.27;10.40;;;;;;;;;;5031332;28;20026;-72
2021/12/27 05:18:29;;;;;;;20.17;9.73;;;;;;;;;;5031288;28;20056;-72
2021/12/27 05:20:55;;;;;;;19.75;10.55;;;;;;;;;;5032194;28;20108;-71
2021/12/27 05:23:21;;;;;;;20.45;10.98;;;;;;;;;;5034738;28;20117;-73
2021/12/27 05:25:47;;;;;;;20.27;10.73;;;;;;;;;;5035224;28;20034;-71
2021/12/27 05:28:13;;;;;;;18.25;9.40;;;;;;;;;;5035166;28;20064;-72
2021/12/27 05:30:41;;;;;;;24.05;11.27;;;;;;;;;;5035447;28;20025;-72
2021/12/27 05:33:07;;;;;;;26.08;11.27;;;;;;;;;;5033056;28;20025;-72
2021/12/27 05:35:33;;;;;;;21.70;11.93;;;;;;;;;;5035168;28;20472;-73
2021/12/27 05:37:59;;;;;;;23.17;11.38;;;;;;;;;;5035092;28;20113;-73
2021/12/27 05:40:25;;;;;;;19.15;10.02;;;;;;;;;;5035133;28;20040;-71
2021/12/27 05:42:53;;;;;;;20.92;9.73;;;;;;;;;;5034323;28;20031;-72
2021/12/27 05:45:19;;;;;;;20.30;10.77;;;;;;;;;;5034634;28;20099;-73
2021/12/27 05:47:45;;;;;;;22.80;11.30;;;;;;;;;;5033283;28;20025;-72
2021/12/27 05:50:12;;;;;;;20.65;10.85;;;;;;;;;;5033458;28;20112;-72
2021/12/27 05:52:38;;;;;;;21.42;10.60;;;;;;;;;;5034514;28;20468;-71
2021/12/27 05:55:05;;;;;;;22.05;11.50;;;;;;;;;;5034320;28;20033;-72
2021/12/27 05:57:31;;;;;;;23.58;11.65;;;;;;;;;;5028147;28;20487;-73
2021/12/27 05:59:57;;;;;;;21.83;11.68;;;;;;;;;;5034699;28;20034;-73
2021/12/27 06:02:23;;;;;;;19.95;10.68;;;;;;;;;;5034495;28;20039;-69
2021/12/27 06:04:49;;;;;;;23.20;12.95;;;;;;;;;;5033686;28;20068;-72
2021/12/27 06:07:16;;;;;;;23.38;11.93;;;;;;;;;;5015106;28;20472;-71
2021/12/27 06:09:42;;;;;;;21.42;10.70;;;;;;;;;;5020057;28;20017;-73
2021/12/27 06:12:08;;;;;;;21.63;10.50;;;;;;;;;;5033037;28;20037;-73
2021/12/27 06:14:34;;;;;;;23.23;11.35;;;;;;;;;;5033533;28;20039;-71
2021/12/27 06:17:00;;;;;;;28.27;13.32;;;;;;;;;;5034174;28;20026;-72
2021/12/27 06:19:26;;;;;;;25.05;12.13;;;;;;;;;;5038767;28;20026;-72
2021/12/27 06:21:52;;;;;;;22.80;11.75;;;;;;;;;;5035482;28;20096;-71
2021/12/27 06:24:18;;;;;;;20.13;11.02;;;;;;;;;;5032134;28;20034;-72
2021/12/27 06:26:44;;;;;;;23.92;11.82;;;;;;;;;;5034826;28;20558;-74
2021/12/27 06:29:10;;;;;;;20.80;10.57;;;;;;;;;;5034261;28;20033;-71
2021/12/27 06:31:36;;;;;;;20.38;10.45;;;;;;;;;;5033340;28;20029;-71
2021/12/27 06:34:02;;;;;;;20.83;10.15;;;;;;;;;;5031977;28;20025;-71
2021/12/27 06:36:28;;;;;;;17.02;9.98;;;;;;;;;;5032073;28;20029;-71
2021/12/27 06:38:54;;;;;;;22.17;10.63;;;;;;;;;;5029896;28;20030;-71
2021/12/27 06:41:23;;;;;;;19.58;10.48;;;;;;;;;;5033571;28;20040;-72
2021/12/27 06:43:49;;;;;;;20.25;9.95;;;;;;;;;;5033161;28;20025;-71
2021/12/27 06:46:15;;;;;;;17.65;9.30;;;;;;;;;;5033323;28;20526;-72
2021/12/27 06:48:41;;;;;;;19.75;10.00;;;;;;;;;;5034021;28;20152;-71
2021/12/27 06:51:07;;;;;;;18.02;9.48;;;;;;;;;;5034150;28;20399;-72
2021/12/27 06:53:33;;;;;;;18.98;9.05;;;;;;;;;;5033163;28;20487;-72
2021/12/27 06:55:59;;;;;;;20.60;10.68;;;;;;;;;;5033499;28;20041;-73
2021/12/27 06:58:25;;;;;;;19.30;10.38;;;;;;;;;;5034171;28;20056;-72
2021/12/27 07:00:51;;;;;;;19.25;10.15;;;;;;;;;;5032007;28;20129;-72
2021/12/27 07:03:17;;;;;;;18.00;9.52;;;;;;;;;;5033011;28;20033;-72
2021/12/27 07:05:44;;;;;;;16.73;9.05;;;;;;;;;;5028279;28;20033;-72
2021/12/27 07:08:10;;;;;;;15.60;8.52;;;;;;;;;;5022320;28;20398;-71
2021/12/27 07:10:36;;;;;;;18.35;9.77;;;;;;;;;;5028657;28;20042;-72
2021/12/27 07:13:03;;;;;;;17.48;9.25;;;;;;;;;;5025466;28;20115;-72
2021/12/27 07:15:30;;;;;;;22.60;9.90;;;;;;;;;;5031827;28;20029;-72
2021/12/27 07:17:56;;;;;;;19.00;10.80;;;;;;;;;;5033815;28;20025;-72
2021/12/27 07:20:22;;;;;;;20.50;9.63;;;;;;;;;;5032946;28;20061;-73
2021/12/27 07:22:48;;;;;;;19.70;10.50;;;;;;;;;;5030276;28;20067;-72
2021/12/27 07:25:14;;;;;;;22.13;10.60;;;;;;;;;;5032514;28;20033;-72
2021/12/27 07:27:40;;;;;;;21.17;10.63;;;;;;;;;;5031480;28;20032;-72
2021/12/27 07:30:07;;;;;;;23.35;10.35;;;;;;;;;;5032974;28;20142;-72
2021/12/27 07:32:33;;;;;;;23.00;11.50;;;;;;;;;;5031717;28;20025;-72
2021/12/27 07:34:59;;;;;;;22.67;11.93;;;;;;;;;;5032185;28;20033;-73
2021/12/27 07:37:25;;;;;;;25.50;11.35;;;;;;;;;;5033338;28;20104;-72
2021/12/27 07:39:51;;;;;;;22.05;10.43;;;;;;;;;;5033473;28;20068;-72
2021/12/27 07:42:17;;;;;;;20.27;10.63;;;;;;;;;;5033730;28;20133;-73
2021/12/27 07:44:43;;;;;;;20.92;10.85;;;;;;;;;;5032022;28;20407;-72
2021/12/27 07:47:09;;;;;;;20.35;11.07;;;;;;;;;;5033640;28;20029;-71
2021/12/27 07:49:37;;;;;;;26.15;11.77;;;;;;;;;;5033793;28;20028;-72
2021/12/27 07:52:03;;;;;;;22.17;11.45;;;;;;;;;;5033557;28;20049;-71
2021/12/27 07:54:29;;;;;;;21.90;11.38;;;;;;;;;;5032411;28;20029;-73
2021/12/27 07:56:55;;;;;;;24.08;11.50;;;;;;;;;;5033777;28;20037;-74
2021/12/27 07:59:21;;;;;;;22.75;11.50;;;;;;;;;;5031873;28;20107;-72
2021/12/27 08:01:47;;;;;;;24.25;11.50;;;;;;;;;;5031526;28;20091;-72
2021/12/27 08:04:13;;;;;;;22.98;11.32;;;;;;;;;;5030702;28;20029;-71
2021/12/27 08:06:39;;;;;;;22.45;10.77;;;;;;;;;;5031437;28;20045;-71
2021/12/27 08:09:06;;;;;;;19.17;11.85;;;;;;;;;;5031174;28;20026;-71
2021/12/27 08:11:32;;;;;;;23.42;11.73;;;;;;;;;;5031952;28;20092;-71
2021/12/27 08:13:58;;;;;;;24.65;11.75;;;;;;;;;;5030853;28;20057;-70
2021/12/27 08:16:24;;;;;;;24.45;12.55;;;;;;;;;;5031407;28;20068;-72
2021/12/27 08:18:53;;;;;;;23.33;11.80;;;;;;;;;;5028786;28;20060;-71
2021/12/27 08:21:20;;;;;;;24.88;11.02;;;;;;;;;;5031262;28;20097;-72
2021/12/27 08:23:46;;;;;;;22.27;11.70;;;;;;;;;;5026420;28;20029;-71
2021/12/27 08:26:12;;;;;;;23.77;12.10;;;;;;;;;;5031378;28;20026;-73
2021/12/27 08:28:38;;;;;;;21.45;11.50;;;;;;;;;;5028860;28;20052;-73
2021/12/27 08:31:04;;;;;;;20.50;11.55;;;;;;;;;;5032432;28;20061;-74
2021/12/27 08:33:30;;;;;;;22.48;11.52;;;;;;;;;;5031357;28;20116;-72
2021/12/27 08:35:56;;;;;;;20.75;11.10;;;;;;;;;;5031728;28;20037;-72
2021/12/27 08:38:23;;;;;;;20.50;11.75;;;;;;;;;;5031395;28;20033;-73
2021/12/27 08:40:49;;;;;;;22.13;10.23;;;;;;;;;;5026171;28;20120;-72
2021/12/27 08:43:15;;;;;;;19.02;10.57;;;;;;;;;;5026050;28;20125;-74
2021/12/27 08:45:41;;;;;;;20.38;11.77;;;;;;;;;;5013622;28;20021;-73
2021/12/27 08:48:07;;;;;;;21.60;10.70;;;;;;;;;;5031332;28;20467;-73
2021/12/27 08:50:33;;;;;;;18.60;9.90;;;;;;;;;;5031781;28;20025;-71
2021/12/27 08:52:59;;;;;;;18.27;10.10;;;;;;;;;;5030693;28;20306;-72
2021/12/27 08:55:25;;;;;;;20.30;10.93;;;;;;;;;;5029387;28;20487;-71
2021/12/27 08:57:50;;;;;;;23.10;11.48;;;;;;;;;;5030403;28;20044;-72
2021/12/27 09:00:17;;;;;;;20.45;10.95;;;;;;;;;;5032659;28;20076;-72
2021/12/27 09:02:46;;;;;;;18.13;10.45;;;;;;;;;;5032752;28;20026;-71
2021/12/27 09:05:13;;;;;;;24.08;11.38;;;;;;;;;;5030768;28;20029;-70
2021/12/27 09:07:39;;;;;;;19.92;9.98;;;;;;;;;;5030194;28;20033;-72
2021/12/27 09:10:06;;;;;;;22.20;11.15;;;;;;;;;;5028714;28;20021;-72
2021/12/27 09:12:32;;;;;;;21.30;11.55;;;;;;;;;;5027205;28;20024;-72
2021/12/27 09:14:58;;;;;;;19.50;9.68;;;;;;;;;;5029529;28;20064;-72
2021/12/27 09:17:24;;;;;;;17.35;10.18;;;;;;;;;;5031178;28;20069;-72
2021/12/27 09:19:50;;;;;;;21.60;11.75;;;;;;;;;;5028408;28;20440;-73
2021/12/27 09:22:17;;;;;;;20.95;10.65;;;;;;;;;;5031348;28;20033;-71
2021/12/27 09:24:43;;;;;;;21.55;10.75;;;;;;;;;;5030482;28;20041;-71
2021/12/27 09:27:09;;;;;;;21.88;11.25;;;;;;;;;;5030797;28;20112;-71
2021/12/27 09:29:35;;;;;;;18.75;11.75;;;;;;;;;;5031076;28;20104;-71
2021/12/27 09:32:01;;;;;;;25.90;11.35;;;;;;;;;;5030401;28;20506;-71
2021/12/27 09:34:27;;;;;;;22.13;10.88;;;;;;;;;;5030509;28;20017;-70
2021/12/27 09:36:53;;;;;;;21.85;11.95;;;;;;;;;;5027755;28;20534;-73
2021/12/27 09:39:19;;;;;;;19.35;11.30;;;;;;;;;;5030431;28;20075;-71
2021/12/27 09:41:45;;;;;;;23.30;11.02;;;;;;;;;;5030920;28;20476;-75
2021/12/27 09:44:12;;;;;;;22.02;11.75;;;;;;;;;;5028620;28;20021;-74
2021/12/27 09:46:38;;;;;;;18.58;11.13;;;;;;;;;;5030642;28;20026;-70
2021/12/27 09:49:06;;;;;;;19.17;10.63;;;;;;;;;;5030725;28;20036;-69
2021/12/27 09:51:34;;;;;;;20.25;11.57;;;;;;;;;;5028432;28;20112;-68
2021/12/27 09:54:00;;;;;;;22.88;11.52;;;;;;;;;;5030171;28;20549;-71
2021/12/27 09:56:26;;;;;;;23.23;11.57;;;;;;;;;;5030780;28;20407;-72
2021/12/27 09:58:53;;;;;;;24.17;11.95;;;;;;;;;;5030798;28;20036;-74
2021/12/27 10:01:19;;;;;;;22.85;11.82;;;;;;;;;;5029713;28;20030;-73
2021/12/27 10:03:52;;;;;;;32.38;15.00;;;;;;;;;;5030057;28;20399;-71
2021/12/27 10:06:20;;;;;;;21.92;11.88;;;;;;;;;;5030553;28;20487;-70
2021/12/27 10:08:51;;;;;;;22.23;12.30;;;;;;;;;;5032976;28;20018;-72
2021/12/27 10:11:19;;;;;;;23.02;12.55;;;;;;;;;;5034128;28;20029;-72
2021/12/27 10:14:01;;;;;;;22.02;11.27;;;;;;;;;;5033689;28;20426;-72
2021/12/27 10:16:27;;;;;;;;;;;;;;;;;;5035054;28;20021;-73
2021/12/27 10:18:54;;;;;;;19.70;11.40;;;;;;;;;;5034377;28;19905;-72
2021/12/27 10:21:20;;;;;;;24.25;12.80;;;;;;;;;;5034350;28;20040;-73
2021/12/27 10:23:46;;;;;;;21.85;12.07;;;;;;;;;;5032052;28;20025;-73
2021/12/27 10:26:16;;;;;;;22.33;11.57;;;;;;;;;;5034010;28;20453;-72
2021/12/27 10:28:42;;;;;;;21.10;11.82;;;;;;;;;;5033987;28;20068;-71
2021/12/27 10:31:08;;;;;;;22.83;12.77;;;;;;;;;;5033882;28;20049;-71
2021/12/27 10:33:34;;;;;;;22.05;11.82;;;;;;;;;;5033112;28;20025;-72
2021/12/27 10:36:01;;;;;;;23.50;11.90;;;;;;;;;;5033906;28;20479;-72
2021/12/27 10:38:38;;;;;;;20.90;11.43;;;;;;;;;;5033084;28;20033;-72
2021/12/27 10:41:05;;;;;;;23.35;12.57;;;;;;;;;;5033771;28;20621;-72
2021/12/27 10:43:44;;;;;;;25.33;12.73;;;;;;;;;;5032277;28;20070;-71
2021/12/27 10:46:13;;;;;;;25.95;12.18;;;;;;;;;;5031738;28;20025;-72
2021/12/27 10:48:40;;;;;;;22.83;11.63;;;;;;;;;;5031618;28;20484;-72
2021/12/27 10:51:07;;;;;;;21.55;11.55;;;;;;;;;;5032504;28;20034;-72
2021/12/27 10:54:03;;;;;;;21.33;11.82;;;;;;;;;;5032749;28;20026;-71
2021/12/27 10:56:48;;;;;;;21.27;11.20;;;;;;;;;;5020611;28;20121;-72
2021/12/27 10:59:18;;;;;;;20.25;11.18;;;;;;;;;;5033182;28;20087;-73
2021/12/27 11:01:47;;;;;;;22.17;11.73;;;;;;;;;;5033754;28;20025;-73
2021/12/27 11:04:15;;;;;;;22.00;12.57;;;;;;;;;;5031571;28;20025;-73
2021/12/27 11:06:42;;;;;;;19.00;11.15;;;;;;;;;;5029529;28;20056;-73
2021/12/27 11:09:09;;;;;;;24.88;13.02;;;;;;;;;;5027178;28;20030;-73
2021/12/27 11:11:35;;;;;;;26.58;13.23;;;;;;;;;;5031138;28;20072;-73
2021/12/27 11:14:01;;;;;;;25.25;13.60;;;;;;;;;;5032182;28;20021;-79
2021/12/27 11:16:28;;;;;;;21.67;12.20;;;;;;;;;;5031918;28;20112;-71
2021/12/27 11:18:58;;;;;;;22.95;12.77;;;;;;;;;;5031493;28;20083;-75
2021/12/27 11:21:25;;;;;;;21.27;11.60;;;;;;;;;;5033088;28;20040;-73
2021/12/27 11:23:51;;;;;;;23.33;12.77;;;;;;;;;;5032260;28;20116;-71
2021/12/27 11:26:25;;;;;;;26.33;13.90;;;;;;;;;;5032605;28;20029;-71
2021/12/27 11:28:52;;;;;;;24.48;12.73;;;;;;;;;;5032663;28;20044;-67
2021/12/27 11:31:24;;;;;;;24.58;13.13;;;;;;;;;;5030746;28;20162;-69
2021/12/27 11:33:57;;;;;;;22.67;12.13;;;;;;;;;;5030706;28;20033;-73
2021/12/27 11:36:25;;;;;;;26.17;12.35;;;;;;;;;;5030479;28;20127;-71
2021/12/27 11:38:52;;;;;;;24.67;12.30;;;;;;;;;;5030770;28;20029;-71
2021/12/27 11:41:26;;;;;;;25.63;13.10;;;;;;;;;;5030337;28;20038;-74
2021/12/27 11:43:53;;;;;;;23.50;12.63;;;;;;;;;;5025806;28;20329;-72
2021/12/27 11:46:20;;;;;;;25.90;13.93;;;;;;;;;;5031489;28;20021;-72
2021/12/27 11:48:47;;;;;;;23.98;13.00;;;;;;;;;;5031942;28;20049;-71
2021/12/27 11:51:13;;;;;;;27.30;14.05;;;;;;;;;;5032285;28;20468;-75
2021/12/27 11:53:45;;;;;;;25.42;13.90;;;;;;;;;;5030707;28;20029;-74
2021/12/27 11:56:11;;;;;;;25.13;13.02;;;;;;;;;;5031496;28;20025;-71
2021/12/27 11:58:39;;;;;;;24.27;12.93;;;;;;;;;;5032137;28;20037;-72
2021/12/27 12:01:06;;;;;;;27.10;13.50;;;;;;;;;;5031780;28;20056;-71
2021/12/27 12:03:40;;;;;;;23.27;12.50;;;;;;;;;;5031244;28;20049;-71
2021/12/27 12:06:06;;;;;;;20.42;11.98;;;;;;;;;;5031511;28;20027;-71
2021/12/27 12:08:38;;;;;;;24.27;12.85;;;;;;;;;;5031695;28;20017;-73
2021/12/27 12:11:10;;;;;;;28.27;12.95;;;;;;;;;;5031472;28;20425;-71
2021/12/27 12:13:49;;;;;;;23.80;12.55;;;;;;;;;;5029798;28;20018;-71
2021/12/27 12:16:19;;;;;;;24.40;13.10;;;;;;;;;;5018637;28;20017;-71
2021/12/27 12:18:51;;;;;;;22.30;12.07;;;;;;;;;;5030399;28;20034;-71
2021/12/27 12:21:29;;;;;;;27.05;13.63;;;;;;;;;;5032135;28;20470;-71
2021/12/27 12:23:57;;;;;;;28.48;14.40;;;;;;;;;;5028507;28;20026;-71
2021/12/27 12:26:23;;;;;;;24.80;13.68;;;;;;;;;;5031348;28;20396;-71
2021/12/27 12:28:58;;;;;;;23.83;12.93;;;;;;;;;;5029523;28;20022;-71
2021/12/27 12:31:28;;;;;;;20.95;11.20;;;;;;;;;;5031766;28;20029;-71
2021/12/27 12:33:54;;;;;;;22.73;11.90;;;;;;;;;;5028216;28;20025;-69
2021/12/27 12:36:20;;;;;;;23.02;12.95;;;;;;;;;;5028109;28;20034;-68
2021/12/27 12:38:46;;;;;;;21.95;11.82;;;;;;;;;;5022105;28;20034;-71
2021/12/27 12:41:13;;;;;;;26.77;13.75;;;;;;;;;;5029959;28;20025;-71
2021/12/27 12:43:50;;;;;;;24.48;13.20;;;;;;;;;;5032660;28;20509;-69
2021/12/27 12:46:23;;;;;;;23.15;13.32;;;;;;;;;;5030696;28;20017;-70
2021/12/27 12:49:15;;;;;;;24.02;13.70;;;;;;;;;;5030845;28;20026;-69
2021/12/27 12:51:43;;;;;;;23.15;12.57;;;;;;;;;;5027892;28;20033;-71
2021/12/27 12:54:30;;;;;;;24.95;12.85;;;;;;;;;;5029716;28;20045;-73
2021/12/27 12:57:05;;;;;;;23.42;12.55;;;;;;;;;;5029653;28;20088;-73
2021/12/27 12:59:42;;;;;;;25.35;12.88;;;;;;;;;;5030726;28;20487;-69
2021/12/27 13:02:13;;;;;;;34.67;16.77;;;;;;;;;;5029588;28;20031;-70
2021/12/27 13:04:39;;;;;;;;;;;;;;;;;;5031074;28;20079;-70
2021/12/27 13:07:05;;;;;;;27.52;14.43;;;;;;;;;;5031248;28;20302;-70
2021/12/27 13:09:41;;;;;;;25.33;13.73;;;;;;;;;;5030852;28;20395;-71
2021/12/27 13:12:07;;;;;;;27.95;13.00;;;;;;;;;;5029715;28;20029;-69
2021/12/27 13:14:33;;;;;;;24.60;13.35;;;;;;;;;;5027218;28;20514;-68
2021/12/27 13:17:10;;;;;;;26.98;14.65;;;;;;;;;;5029153;28;20065;-69
2021/12/27 13:19:55;;;;;;;24.40;13.90;;;;;;;;;;5029889;28;20030;-69
2021/12/27 13:22:40;;;;;;;26.85;14.07;;;;;;;;;;5010274;28;20112;-68
2021/12/27 13:25:06;;;;;;;25.60;13.32;;;;;;;;;;5009827;28;20037;-68
2021/12/27 13:27:32;;;;;;;26.55;14.18;;;;;;;;;;5010445;28;20018;-68
2021/12/27 13:30:04;;;;;;;26.60;14.18;;;;;;;;;;5010245;28;20024;-68
2021/12/27 13:32:30;;;;;;;25.58;14.82;;;;;;;;;;5010908;28;20049;-68
2021/12/27 13:34:56;;;;;;;28.70;14.18;;;;;;;;;;5010617;28;20452;-68
2021/12/27 13:37:22;;;;;;;24.50;13.95;;;;;;;;;;5011249;28;20112;-68
2021/12/27 13:39:48;;;;;;;28.50;15.85;;;;;;;;;;5011200;28;20164;-68
2021/12/27 13:42:15;;;;;;;29.33;16.23;;;;;;;;;;5028197;28;20030;-68
2021/12/27 13:44:41;;;;;;;27.67;14.13;;;;;;;;;;5014423;28;20048;-68
2021/12/27 13:47:09;;;;;;;28.70;13.40;;;;;;;;;;5043877;28;20033;-68
2021/12/27 13:49:38;;;;;;;26.42;13.48;;;;;;;;;;5055185;28;20479;-66
2021/12/27 13:52:05;;;;;;;27.15;14.93;;;;;;;;;;5054613;28;20539;-68
2021/12/27 13:54:41;;;;;;;27.85;15.63;;;;;;;;;;5051720;28;20024;-66
2021/12/27 13:57:07;;;;;;;24.90;13.93;;;;;;;;;;5054828;28;20032;-69
2021/12/27 13:59:38;;;;;;;29.98;14.73;;;;;;;;;;5055033;28;20028;-66
2021/12/27 14:02:05;;;;;;;25.27;13.50;;;;;;;;;;5042240;28;20021;-68
2021/12/27 14:04:32;;;;;;;26.33;13.77;;;;;;;;;;5032439;28;20017;-68
2021/12/27 14:06:59;;;;;;;25.75;13.90;;;;;;;;;;5033096;28;20510;-69
2021/12/27 14:09:29;;;;;;;33.75;14.75;;;;;;;;;;5032760;28;20543;-68
2021/12/27 14:11:56;;;;;;;28.97;13.80;;;;;;;;;;5032853;28;20024;-68
2021/12/27 14:14:41;;;;;;;24.55;13.85;;;;;;;;;;5031952;28;20497;-68
2021/12/27 14:17:14;;;;;;;24.60;13.00;;;;;;;;;;5032640;28;20072;-69
2021/12/27 14:19:41;;;;;;;23.83;12.68;;;;;;;;;;5034388;28;20025;-69
2021/12/27 14:22:12;;;;;;;26.00;12.90;;;;;;;;;;5034558;28;20362;-69
2021/12/27 14:24:42;;;;;;;26.83;14.23;;;;;;;;;;5034544;28;20550;-69
2021/12/27 14:27:16;;;;;;;29.15;14.57;;;;;;;;;;5034685;28;20108;-69
2021/12/27 14:29:42;;;;;;;28.05;14.27;;;;;;;;;;5034358;28;20403;-68
2021/12/27 14:32:08;;;;;;;25.25;13.98;;;;;;;;;;5034262;28;20017;-68
2021/12/27 14:34:35;;;;;;;26.17;13.98;;;;;;;;;;5032332;28;20041;-69